Meteo Giornale » Osservazioni meteo Giappone » Komatsu Ab
ore: 21:00 - Osservazioni Meteo Komatsu Ab
Lat. 36° 23' N Lon. 136° 25' E Alt. 6 metri s.l.m.
29 °C
Nuvoloso
Temp. 24 Ore
26 °C
36 °C
Nord
5.5 Km/h
Dew point 25 °C
Umidità 79 %
Visibilità 10 Km
Il sole sorge alle ore 05:25
Il sole tramonta alle ore 18:23
| Data e Ora | Cielo e Fenomeni | T °C | DP °C | Um. % | Pres. hPa | Vis. km | Vento km/h | |
|---|---|---|---|---|---|---|---|---|
| Oggi h: 21:00 | Nuvoloso | 29 | 25 | 79 | 1013 | 10 | N 5.5 | |
| Oggi h: 20:00 | Nuvoloso | 30 | 25 | 74 | 1013 | 10 | N 5.5 | |
| Oggi h: 19:00 | Nuvoloso | 30 | 26 | 79 | 1012 | 10 | N/NE 9.3 | |
| Oggi h: 18:00 | Nuvoloso | 31 | 26 | 74 | 1012 | 10 | O 14.8 | |
| Oggi h: 17:00 | Nuvoloso | 31 | 25 | 70 | 1011 | 10 | O 22.2 | |
| Oggi h: 16:00 | Nuvoloso | 32 | 25 | 66 | 1011 | 10 | O 27.8 | |
| Oggi h: 15:00 | Nuvoloso | 33 | 25 | 62 | 1011 | 10 | O 33.3 | |
| Oggi h: 14:00 | Nuvoloso | 33 | 25 | 62 | 1011 | 10 | O 29.6 | |
| Oggi h: 13:00 | Nuvoloso | 33 | 25 | 62 | 1012 | 10 | O 27.8 | |
| Oggi h: 12:00 | Poco Nuvoloso | 36 | 21 | 41 | 1012 | 10 | SO 22.2 | |
| Oggi h: 11:00 | Poco Nuvoloso | 35 | 22 | 47 | 1012 | 10 | S/SO 18.5 | |
| Oggi h: 10:00 | Poco Nuvoloso | 33 | 25 | 62 | 1012 | 10 | NO 7.4 | |
| Oggi h: 09:00 | Poco Nuvoloso | 32 | 24 | 62 | 1013 | 10 | SO 7.4 | |
| Oggi h: 08:00 | Poco Nuvoloso | 29 | 25 | 79 | 1013 | 10 | N 5.5 | |
| Oggi h: 07:00 | Poco Nuvoloso | 27 | 24 | 83 | 1013 | 10 | N 3.7 | |
| Oggi h: 06:00 | Nuvoloso | 26 | 26 | 100 | 1012 | 10 | N 3.7 | |
| Oggi h: 05:00 | Molto Nuvoloso | 26 | 25 | 94 | 1012 | 10 | E/SE 7.4 | |
| Oggi h: 04:00 | Molto Nuvoloso | 27 | 27 | 100 | 1013 | 10 | N 5.5 | |
| Oggi h: 03:00 | Molto Nuvoloso | 27 | 25 | 88 | 1013 | 10 | N 1.8 | |
| Oggi h: 02:00 | Molto Nuvoloso | 27 | 26 | 94 | 1012 | 10 | N 1.8 | |
| Oggi h: 01:00 | Molto Nuvoloso | 26 | 26 | 100 | 1012 | 10 | N 5.5 | |
| Oggi h: 00:00 | Molto Nuvoloso | 27 | 27 | 100 | 1012 | 10 | SE 13 | |
| Ieri h: 23:00 | Pioggia | 28 | 27 | 94 | 1012 | 10 | N 5.5 | |
| Ieri h: 22:00 | Molto Nuvoloso | 27 | 26 | 94 | 1012 | 10 | N 3.7 | |



